Actual water levels and discharges of Morava river

Lanžhot

Date and time (UTC) H (cm) Q (m3/s)
20. 5. 2019 15:10 62 32
20. 5. 2019 15:00 61 32
20. 5. 2019 14:00 61 32
20. 5. 2019 13:00 62 32
20. 5. 2019 11:00 62 32
20. 5. 2019 10:00 62 32
20. 5. 2019 09:00 62 32
20. 5. 2019 08:00 62 32
20. 5. 2019 07:00 62 32
20. 5. 2019 06:00 62 32
20. 5. 2019 05:00 61 32
20. 5. 2019 04:00 61 32
20. 5. 2019 03:00 61 32
20. 5. 2019 02:00 62 32

H - vodni stav, Q - discharge

Strážnice

Date and time (UTC) H (cm) Q (m3/s)
20. 5. 2019 15:10 138 35
20. 5. 2019 15:00 138 35
20. 5. 2019 14:00 137 34
20. 5. 2019 13:00 134 33
20. 5. 2019 10:00 131 31
20. 5. 2019 09:00 131 31
20. 5. 2019 08:00 130 31
20. 5. 2019 07:00 129 30
20. 5. 2019 06:00 130 31
20. 5. 2019 05:00 130 31
20. 5. 2019 04:00 131 31
20. 5. 2019 03:00 131 31
20. 5. 2019 02:00 131 31
20. 5. 2019 01:00 131 31

H - vodni stav, Q - discharge

Spytihněv

Date and time (UTC) H (cm) Q (m3/s)
20. 5. 2019 15:10 119 30
20. 5. 2019 15:00 116 29
20. 5. 2019 14:00 119 30
20. 5. 2019 13:00 149 48
20. 5. 2019 10:00 170 63
20. 5. 2019 09:00 127 35
20. 5. 2019 08:00 125 34
20. 5. 2019 07:00 120 31
20. 5. 2019 06:00 117 29
20. 5. 2019 05:00 121 32
20. 5. 2019 04:00 122 32
20. 5. 2019 03:00 118 30
20. 5. 2019 02:00 117 29
20. 5. 2019 01:00 117 29

H - vodni stav, Q - discharge

Kroměříž

Date and time (UTC) H (cm) Q (m3/s)
20. 5. 2019 15:10 148 27
20. 5. 2019 15:00 148 27
20. 5. 2019 14:00 147 26
20. 5. 2019 13:00 148 27
20. 5. 2019 11:00 148 27
20. 5. 2019 10:00 149 28
20. 5. 2019 09:00 149 28
20. 5. 2019 08:00 148 27
20. 5. 2019 07:00 148 27
20. 5. 2019 06:00 148 27
20. 5. 2019 05:00 148 27
20. 5. 2019 04:00 148 27
20. 5. 2019 03:00 149 28
20. 5. 2019 02:00 149 28

H - vodni stav, Q - discharge

Olomouc-Nové Sady tok

Date and time (UTC) H (cm) Q (m3/s)
20. 5. 2019 15:10 106 14
20. 5. 2019 15:00 106 14
20. 5. 2019 14:00 106 14
20. 5. 2019 13:00 107 15
20. 5. 2019 11:00 107 15
20. 5. 2019 10:00 105 14
20. 5. 2019 09:00 104 13
20. 5. 2019 08:00 104 13
20. 5. 2019 07:00 105 14
20. 5. 2019 06:00 105 14
20. 5. 2019 05:00 105 14
20. 5. 2019 04:00 105 14
20. 5. 2019 03:00 105 14
20. 5. 2019 02:00 105 14

H - vodni stav, Q - discharge

Moravičany

Date and time (UTC) H (cm) Q (m3/s)
20. 5. 2019 15:10 97 13
20. 5. 2019 15:00 96 12
20. 5. 2019 14:00 97 13
20. 5. 2019 13:00 93 11
20. 5. 2019 11:00 93 11
20. 5. 2019 10:00 92 11
20. 5. 2019 09:00 90 10
20. 5. 2019 08:00 88 9
20. 5. 2019 07:00 91 10
20. 5. 2019 06:00 91 10
20. 5. 2019 05:00 90 10
20. 5. 2019 04:00 90 10
20. 5. 2019 03:00 91 10
20. 5. 2019 02:00 90 10

H - vodni stav, Q - discharge
Source data
Labe Basin Vltava Basin ČHMÚ